Terminal Aerodrome Forecast
Issued by NWS Norman, OK

Home | Current Version | Previous Version | Text Only | Print | Product List | Glossary On
Versions: 1 2 3 4 5 6 7 8 9 10 11 12 13 14 15 16
000
FTUS44 KOUN 231120
TAFSPS
TAF
KSPS 231120Z 2312/2412 32008KT P6SM SCT250
     FM231800 35009G16KT P6SM SCT250
     FM232300 34009KT P6SM SCT250=

USA.gov is the U.S. government's official web portal to all federal, state and local government web resources and services.